• Join FlightAware (Why Join?)
  • Login
  • US Flag 
03:29AM EST


 

Airport Tracker/Info


-or-


 

Live Flight TrackerFlight Track Log ✈ FIN666 ✈ 16-Nov-2013 ✈ EKCH / CPH - EFHK / HEL

Flight Track Log - Related Links

Times and Time Zones

All times are in EST time to prevent confusion due to time zone crossing. See the FIN666 flight status page for this flight to view local times or setup timezone preferences in your user account.

Time Position Orientation Groundspeed Altitude Reporting Facility
EST Latitude Longitude Course Direction KTS MPH feet Rate Location/Type
07:26AM 55.8420 13.1192 49° Northeast  Level Estimated
07:27AM 55.9164 13.2747 50° Northeast  Level Estimated
07:28AM 55.9905 13.4309 50° Northeast  Level Estimated
07:29AM 56.0624 13.5833 50° Northeast  Level Estimated
07:30AM 56.1340 13.7363 50° Northeast  Level Estimated
07:31AM 56.2055 13.8899 50° Northeast  Level Estimated
07:32AM 56.2768 14.0440 50° Northeast  Level Estimated
07:33AM 56.3479 14.1987 50° Northeast  Level Estimated
07:34AM 56.4189 14.3540 50° Northeast  Level Estimated
07:35AM 56.4896 14.5098 51° Northeast  Level Estimated
07:36AM 56.5601 14.6663 51° Northeast  Level Estimated
07:37AM 56.6304 14.8233 51° Northeast  Level Estimated
07:38AM 56.7006 14.9809 51° Northeast  Level Estimated
07:39AM 56.7705 15.1391 51° Northeast  Level Estimated
07:40AM 56.8402 15.2979 51° Northeast  Level Estimated
07:41AM 56.9098 15.4573 51° Northeast  Level Estimated
07:42AM 56.9791 15.6172 51° Northeast  Level Estimated
07:43AM 57.0482 15.7778 52° Northeast  Level Estimated
07:44AM 57.1171 15.9390 52° Northeast  Level Estimated
07:45AM 57.1858 16.1007 52° Northeast  Level Estimated
07:46AM 57.2543 16.2631 52° Northeast  Level Estimated
07:47AM 57.3246 16.4308 52° Northeast  Level Estimated
07:48AM 57.3946 16.5990 52° Northeast  Level Estimated
07:49AM 57.4644 16.7680 52° Northeast  Level Estimated
07:50AM 57.5339 16.9375 53° Northeast  Level Estimated
07:51AM 57.6033 17.1077 53° Northeast  Level Estimated
07:52AM 57.6724 17.2786 53° Northeast  Level Estimated
07:53AM 57.7412 17.4501 53° Northeast  Level Estimated
07:54AM 57.8099 17.6223 53° Northeast  Level Estimated
07:55AM 57.8783 17.7951 53° Northeast  Level Estimated
07:56AM 57.9465 17.9686 53° Northeast  Level Estimated
07:57AM 58.0144 18.1427 54° Northeast  Level Estimated
07:58AM 58.0821 18.3175 54° Northeast  Level Estimated
07:59AM 58.1495 18.4930 54° Northeast  Level Estimated
08:00AM 58.2167 18.6691 54° Northeast  Level Estimated
08:01AM 58.2837 18.8459 54° Northeast  Level Estimated
08:02AM 58.3504 19.0234 54° Northeast  Level Estimated
08:03AM 58.4169 19.2015 54° Northeast  Level Estimated
08:04AM 58.4831 19.3803 55° Northeast  Level Estimated
08:05AM 58.5491 19.5598 55° Northeast  Level Estimated
08:06AM 58.6148 19.7400 55° Northeast  Level Estimated
08:07AM 58.6803 19.9208 55° Northeast  Level Estimated
08:08AM 58.7455 20.1023 55° Northeast  Level Estimated
08:09AM 58.8105 20.2845 55° Northeast  Level Estimated
08:10AM 58.8752 20.4674 56° Northeast  Level Estimated
08:11AM 58.9397 20.6509 56° Northeast  Level Estimated
08:12AM 59.0039 20.8352 56° Northeast  Level Estimated
08:13AM 59.0678 21.0201 56° Northeast  Level Estimated
08:14AM 59.1315 21.2057 56° Northeast  Level Estimated
08:15AM 59.1949 21.3920 56° Northeast  Level Estimated
08:16AM 59.2580 21.5790 57° Northeast  Level Estimated
08:17AM 59.3209 21.7667 57° Northeast  Level Estimated
08:18AM 59.3834 21.9551 57° Northeast  Level Estimated
08:19AM 59.4458 22.1442 57° Northeast  Level Estimated
08:20AM 59.5078 22.3340 57° Northeast  Level Estimated
08:21AM 59.5695 22.5245 57° Northeast  Level Estimated
08:22AM 59.6310 22.7157 57° Northeast  Level Estimated
08:23AM 59.6922 22.9075 58° Northeast  Level Estimated
08:24AM 59.7532 23.1001 58° Northeast  Level Estimated
08:25AM 59.8138 23.2934 58° Northeast  Level Estimated
08:26AM 59.8742 23.4874 58° Northeast  Level Estimated
08:27AM 59.9342 23.6821 58° Northeast  Level Estimated
08:28AM 59.9940 23.8775 58° Northeast  Level Estimated
08:29AM 60.0535 24.0736 59° Northeast  Level Estimated
08:30AM 60.1127 24.2704 59° Northeast  Level Estimated
08:31AM 60.1716 24.4679 59° Northeast  Level Estimated
08:32AM 60.2303 24.6661 59° Northeast  Level Estimated
08:33AM 60.2886 24.8650 59° Northeast  Level Estimated
08:34AM 60.3172 24.9633 60° Northeast  Level Estimated
08:35AM 60.3172 24.9633 37° Northeast  Level Estimated
08:36AM 60.3172 24.9633 37° Northeast  Level Estimated
08:37AM 60.3172 24.9633 37° Northeast  Level Estimated
08:38AM 60.3172 24.9633 37° Northeast  Level Estimated
08:39AM 60.3172 24.9633 37° Northeast  Level Estimated
08:40AM 60.3172 24.9633 37° Northeast  Level Estimated
08:41AM 60.3172 24.9633 37° Northeast  Level Estimated
08:42AM 60.3172 24.9633 37° Northeast  Level Estimated
08:43AM 60.3172 24.9633 37° Northeast  Level Estimated
08:44AM 60.3172 24.9633 37° Northeast  Level Estimated
08:45AM 60.3172 24.9633 37° Northeast  Level Estimated
08:46AM 60.3172 24.9633 37° Northeast  Level Estimated
08:47AM 60.3172 24.9633 37° Northeast  Level Estimated
08:48AM 60.3172 24.9633 37° Northeast  Level Estimated